Huvudsida
METAR-TAF:

METAR-TAF

Flygplatser :

Florens-Peretolas flygplats

Florens, Italien

latitud: 43-48N, longitud: 011-12E, höjd: 40 m

Aktuellt väderrapport

Denna rapport gjordes för 43 minuter sedan, klockan 07:50 UTC
Vind 1 kt varierande vindriktning
Temperatur 6°C
Fuktighet 100%
Tryck 1031 hPa
Sikt 10 km eller mer
Inga moln under 1 500 m eller inga cumulonimbus

METAR: LIRQ 220750Z VRB01KT CAVOK 06/06 Q1031

Tid: 09:33 (08:33 UTC)

Väderprognos

Denna rapport gjordes för 3 timmar och 33 minuter sedan, klockan 05:00 UTC
Prognos gäller från 22 kl. 06 UTC till 23 kl. 06 UTC
Vind 5 kt varierande vindriktning
Sikt 10 km eller mer
Få moln på en höjd av 3000 ft
Blir
från 23 kl. 00 UTC till 23 kl. 02 UTC
Sikt: 2000 m
fuktdis

TAF: LIRQ 220500Z 2206/2306 VRB05KT 9999 FEW030 BECMG 2300/2302 2000 BR

Aktuella väderrapporter och prognoser från 4000 flygplatser (METAR- och TAF-rapporter).

De tillgängliga stationerna syns som gula och röda prickar på kartan.

För musen över prickarna för att se namnen på stationerna.

Klicka sedan för att få väderrapporter och prognoser.

För att ändra kartan: Klicka på de gröna knapparna med ett svart kors på för att zooma in; den gröna knappen med ett streck på för att zooma ut; eller på de gröna pilarna för angränsande kartor.


METAR-TAF: